Time,TemperatureF,DewpointF,PressureIn,WindDirection,WindDirectionDegrees,WindSpeedMPH,WindSpeedGustMPH,Humidity,HourlyPrecipIn,Conditions,Clouds,dailyrainin,SoftwareType,DateUTC
2013-03-01 00:01:00,50.4,-11.4,30.34,East,97,2.0,2.0,7,0.01,,---,0.00,VWS V14.01,2013-03-01 08:01:00,
2013-03-01 00:06:00,50.5,-11.3,30.34,SSE,148,0.0,0.0,7,0.01,,---,0.00,VWS V14.01,2013-03-01 08:06:00,
2013-03-01 00:11:00,50.4,-8.7,30.33,SSE,148,0.0,0.0,8,0.01,,---,0.00,VWS V14.01,2013-03-01 08:11:00,
2013-03-01 00:16:00,50.3,-11.5,30.33,SSE,148,0.0,0.0,7,0.01,,---,0.00,VWS V14.01,2013-03-01 08:16:00,
2013-03-01 00:21:00,50.2,-11.6,30.33,SSE,148,0.0,0.0,7,0.02,,---,0.01,VWS V14.01,2013-03-01 08:21:00,
2013-03-01 00:26:00,50.3,-11.5,30.33,SSE,148,0.0,0.0,7,0.02,,---,0.01,VWS V14.01,2013-03-01 08:26:00,
2013-03-01 00:31:00,50.3,-11.5,30.33,SSE,148,0.0,0.0,7,0.03,,---,0.02,VWS V14.01,2013-03-01 08:31:00,
2013-03-01 00:36:00,50.3,-11.5,30.33,SSE,148,0.0,0.0,7,0.03,,---,0.02,VWS V14.01,2013-03-01 08:36:00,
2013-03-01 00:41:00,50.3,-11.5,30.33,ESE,113,2.0,4.0,7,0.03,,---,0.02,VWS V14.01,2013-03-01 08:41:00,
2013-03-01 00:46:00,50.4,-8.7,30.33,ENE,72,0.0,0.0,8,0.03,,---,0.02,VWS V14.01,2013-03-01 08:46:00,
2013-03-01 00:51:00,50.3,-11.5,30.33,ENE,72,0.0,0.0,7,0.04,,---,0.03,VWS V14.01,2013-03-01 08:51:00,
2013-03-01 00:56:00,50.3,-11.5,30.33,ENE,72,0.0,0.0,7,0.03,,---,0.03,VWS V14.01,2013-03-01 08:56:00,
2013-03-01 01:01:00,50.3,-11.5,30.33,ENE,78,0.0,3.0,7,0.04,,---,0.04,VWS V14.01,2013-03-01 09:01:00,
2013-03-01 01:06:00,50.3,-11.5,30.33,ESE,111,0.0,0.0,7,0.04,,---,0.04,VWS V14.01,2013-03-01 09:06:00,
2013-03-01 01:11:00,50.4,-11.4,30.33,ESE,111,0.0,0.0,7,0.04,,---,0.04,VWS V14.01,2013-03-01 09:11:00,
2013-03-01 01:16:00,50.5,-11.3,30.33,SW,216,0.0,0.0,7,0.04,,---,0.04,VWS V14.01,2013-03-01 09:16:00,
2013-03-01 01:21:00,50.6,-11.3,30.34,SW,219,0.0,0.0,7,0.04,,---,0.04,VWS V14.01,2013-03-01 09:21:00,
2013-03-01 01:26:00,50.5,-11.3,30.34,ESE,109,0.0,0.0,7,0.03,,---,0.04,VWS V14.01,2013-03-01 09:26:00,
2013-03-01 01:31:00,50.5,-11.3,30.34,ENE,65,0.0,0.0,7,0.03,,---,0.04,VWS V14.01,2013-03-01 09:31:00,
2013-03-01 01:36:00,50.7,-11.2,30.34,SSW,198,0.0,0.0,7,0.02,,---,0.04,VWS V14.01,2013-03-01 09:36:00,
2013-03-01 01:41:00,50.7,-11.2,30.34,SSW,198,0.0,1.0,7,0.02,,---,0.04,VWS V14.01,2013-03-01 09:41:00,
2013-03-01 01:46:00,50.7,-11.2,30.35,WSW,254,1.0,2.0,7,0.02,,---,0.04,VWS V14.01,2013-03-01 09:46:00,
2013-03-01 01:51:00,50.9,-11.0,30.35,WSW,254,0.0,0.0,7,0.01,,---,0.04,VWS V14.01,2013-03-01 09:51:00,
2013-03-01 01:56:00,50.9,-11.0,30.35,WSW,254,0.0,0.0,7,0.01,,---,0.04,VWS V14.01,2013-03-01 09:56:00,
2013-03-01 02:01:00,50.8,-11.1,30.34,ENE,76,0.0,2.0,7,0.00,,---,0.04,VWS V14.01,2013-03-01 10:01:00,
2013-03-01 02:06:00,50.8,-11.1,30.35,SE,142,0.0,0.0,7,0.00,,---,0.04,VWS V14.01,2013-03-01 10:06:00,
2013-03-01 02:11:00,51.0,-11.0,30.35,SE,128,0.0,2.0,7,0.00,,---,0.04,VWS V14.01,2013-03-01 10:11:00,
2013-03-01 02:16:00,51.0,-11.0,30.35,SE,134,0.0,0.0,7,0.00,,---,0.04,VWS V14.01,2013-03-01 10:16:00,
2013-03-01 02:21:00,51.1,-10.9,30.35,ESE,117,0.0,0.0,7,0.00,,---,0.04,VWS V14.01,2013-03-01 10:21:00,
2013-03-01 02:26:00,51.1,-10.9,30.35,NE,49,0.0,0.0,7,0.00,,---,0.04,VWS V14.01,2013-03-01 10:26:00,
2013-03-01 02:31:00,51.3,-10.7,30.35,ENE,69,3.0,4.0,7,0.00,,---,0.04,VWS V14.01,2013-03-01 10:31:00,
2013-03-01 02:36:00,51.3,-10.7,30.35,ENE,67,0.0,1.0,7,0.00,,---,0.04,VWS V14.01,2013-03-01 10:36:00,
2013-03-01 02:41:00,51.4,-10.7,30.35,ENE,69,0.0,4.0,7,0.00,,---,0.04,VWS V14.01,2013-03-01 10:41:00,
2013-03-01 02:46:00,51.4,-10.7,30.35,ENE,69,0.0,2.0,7,0.00,,---,0.04,VWS V14.01,2013-03-01 10:46:00,
2013-03-01 02:51:00,51.2,-10.8,30.35,ESE,119,0.0,1.0,7,0.00,,---,0.04,VWS V14.01,2013-03-01 10:51:00,
2013-03-01 02:56:00,51.2,-10.8,30.35,SE,132,0.0,2.0,7,0.00,,---,0.04,VWS V14.01,2013-03-01 10:56:00,
2013-03-01 03:01:00,51.2,-10.8,30.35,SE,132,0.0,0.0,7,0.00,,---,0.04,VWS V14.01,2013-03-01 11:01:00,
2013-03-01 03:06:00,51.2,-10.8,30.35,NNE,28,0.0,3.0,7,0.00,,---,0.04,VWS V14.01,2013-03-01 11:06:00,
2013-03-01 03:11:00,51.1,-10.9,30.35,NE,38,0.0,1.0,7,0.00,,---,0.04,VWS V14.01,2013-03-01 11:11:00,
2013-03-01 03:16:00,51.1,-10.9,30.35,NE,38,0.0,0.0,7,0.00,,---,0.04,VWS V14.01,2013-03-01 11:16:00,
2013-03-01 03:21:00,51.1,-10.9,30.35,NE,38,0.0,0.0,7,0.00,,---,0.04,VWS V14.01,2013-03-01 11:21:00,
2013-03-01 03:26:00,51.1,-10.9,30.34,NE,38,0.0,1.0,7,0.00,,---,0.04,VWS V14.01,2013-03-01 11:26:00,
2013-03-01 03:31:00,51.0,-11.0,30.34,NE,38,0.0,0.0,7,0.00,,---,0.04,VWS V14.01,2013-03-01 11:31:00,
2013-03-01 03:36:00,51.0,-11.0,30.34,SSW,205,0.0,4.0,7,0.00,,---,0.04,VWS V14.01,2013-03-01 11:36:00,
2013-03-01 03:41:00,51.2,-10.8,30.34,NNW,332,0.0,0.0,7,0.00,,---,0.04,VWS V14.01,2013-03-01 11:41:00,
2013-03-01 03:46:00,51.2,-10.8,30.34,NE,52,0.0,3.0,7,0.00,,---,0.04,VWS V14.01,2013-03-01 11:46:00,
2013-03-01 03:51:00,51.1,-10.9,30.34,SW,236,0.0,0.0,7,0.00,,---,0.04,VWS V14.01,2013-03-01 11:51:00,
2013-03-01 03:56:00,51.2,-10.8,30.34,SW,217,0.0,1.0,7,0.00,,---,0.04,VWS V14.01,2013-03-01 11:56:00,
2013-03-01 04:01:00,51.2,-10.8,30.34,SW,218,1.0,1.0,7,0.00,,---,0.04,VWS V14.01,2013-03-01 12:01:00,
2013-03-01 04:06:00,51.2,-10.8,30.34,South,183,1.0,2.0,7,0.00,,---,0.04,VWS V14.01,2013-03-01 12:06:00,
2013-03-01 04:11:00,51.2,-10.8,30.34,SSW,194,0.0,1.0,7,0.00,,---,0.04,VWS V14.01,2013-03-01 12:11:00,
2013-03-01 04:16:00,51.2,-10.8,30.34,ENE,76,4.0,6.0,7,0.00,,---,0.04,VWS V14.01,2013-03-01 12:16:00,
2013-03-01 04:21:00,51.2,-10.8,30.34,NE,55,0.0,2.0,7,0.00,,---,0.04,VWS V14.01,2013-03-01 12:21:00,
2013-03-01 04:26:00,51.1,-10.9,30.34,NE,55,0.0,1.0,7,0.00,,---,0.04,VWS V14.01,2013-03-01 12:26:00,
2013-03-01 04:31:00,51.1,-8.2,30.34,WNW,298,2.0,6.0,8,0.00,,---,0.04,VWS V14.01,2013-03-01 12:31:00,
2013-03-01 04:36:00,51.2,-8.1,30.34,SSW,206,0.0,3.0,8,0.00,,---,0.04,VWS V14.01,2013-03-01 12:36:00,
2013-03-01 04:41:00,51.3,-8.0,30.34,SSW,206,0.0,0.0,8,0.00,,---,0.04,VWS V14.01,2013-03-01 12:41:00,
2013-03-01 04:46:00,51.3,-8.0,30.33,South,186,0.0,0.0,8,0.00,,---,0.04,VWS V14.01,2013-03-01 12:46:00,
2013-03-01 04:51:00,51.3,-8.0,30.34,South,186,0.0,0.0,8,0.00,,---,0.04,VWS V14.01,2013-03-01 12:51:00,
2013-03-01 04:56:00,51.2,-5.7,30.33,SSW,195,0.0,1.0,9,0.00,,---,0.04,VWS V14.01,2013-03-01 12:56:00,
2013-03-01 05:01:00,51.1,-5.8,30.33,SSW,195,0.0,0.0,9,0.00,,---,0.04,VWS V14.01,2013-03-01 13:01:00,
2013-03-01 05:06:00,51.0,-5.8,30.33,SSW,195,0.0,3.0,9,0.00,,---,0.04,VWS V14.01,2013-03-01 13:06:00,
2013-03-01 05:11:00,51.0,-5.8,30.34,SSW,195,0.0,0.0,9,0.00,,---,0.04,VWS V14.01,2013-03-01 13:11:00,
2013-03-01 05:16:00,51.0,-5.8,30.33,WNW,282,0.0,0.0,9,0.00,,---,0.04,VWS V14.01,2013-03-01 13:16:00,
2013-03-01 05:21:00,51.0,-5.8,30.33,West,281,0.0,0.0,9,0.00,,---,0.04,VWS V14.01,2013-03-01 13:21:00,
2013-03-01 05:26:00,51.0,-5.8,30.33,West,281,0.0,1.0,9,0.00,,---,0.04,VWS V14.01,2013-03-01 13:26:00,
2013-03-01 05:31:00,51.0,-5.8,30.33,North,355,0.0,0.0,9,0.00,,---,0.04,VWS V14.01,2013-03-01 13:31:00,
2013-03-01 05:36:00,50.9,-5.9,30.33,WSW,248,0.0,1.0,9,0.00,,---,0.04,VWS V14.01,2013-03-01 13:36:00,
2013-03-01 05:41:00,50.9,-5.9,30.33,WSW,248,0.0,0.0,9,0.00,,---,0.04,VWS V14.01,2013-03-01 13:41:00,
2013-03-01 05:46:00,51.0,-5.8,30.33,North,355,0.0,1.0,9,0.00,,---,0.04,VWS V14.01,2013-03-01 13:46:00,
2013-03-01 05:51:00,51.1,-5.8,30.33,NNE,23,1.0,1.0,9,0.00,,---,0.04,VWS V14.01,2013-03-01 13:51:00,
2013-03-01 05:56:00,51.2,-1.5,30.33,SE,130,6.0,7.0,11,0.00,,---,0.04,VWS V14.01,2013-03-01 13:56:00,
2013-03-01 06:01:00,51.6,2.4,30.34,WSW,241,0.0,0.0,13,0.00,,---,0.04,VWS V14.01,2013-03-01 14:01:00,
2013-03-01 06:06:00,51.6,5.5,30.34,WNW,294,0.0,2.0,15,0.00,,---,0.04,VWS V14.01,2013-03-01 14:06:00,
2013-03-01 06:12:00,51.6,6.9,30.33,NE,48,1.0,2.0,16,0.00,,---,0.04,VWS V14.01,2013-03-01 14:12:00,
2013-03-01 06:17:00,51.6,6.9,30.34,North,10,3.0,3.0,16,0.00,,---,0.04,VWS V14.01,2013-03-01 14:17:00,
2013-03-01 06:22:00,52.0,12.2,30.34,NE,48,2.0,2.0,20,0.00,,---,0.04,VWS V14.01,2013-03-01 14:22:00,
2013-03-01 06:27:00,52.1,14.4,30.34,NE,46,0.0,0.0,22,0.00,,---,0.04,VWS V14.01,2013-03-01 14:27:00,
2013-03-01 06:32:00,52.2,19.2,30.34,SW,223,2.0,6.0,27,0.00,,---,0.04,VWS V14.01,2013-03-01 14:32:00,
2013-03-01 06:37:00,52.2,17.5,30.34,WNW,291,0.0,2.0,25,0.00,,---,0.04,VWS V14.01,2013-03-01 14:37:00,
2013-03-01 06:42:00,52.3,20.2,30.34,NE,44,0.0,4.0,28,0.00,,---,0.04,VWS V14.01,2013-03-01 14:42:00,
2013-03-01 06:47:00,52.4,21.1,30.33,ENE,70,2.0,3.0,29,0.00,,---,0.04,VWS V14.01,2013-03-01 14:47:00,
2013-03-01 06:52:00,52.4,20.3,30.34,NE,50,0.0,4.0,28,0.00,,---,0.04,VWS V14.01,2013-03-01 14:52:00,
2013-03-01 06:57:00,52.3,20.2,30.33,NW,306,5.0,8.0,28,0.00,,---,0.04,VWS V14.01,2013-03-01 14:57:00,
2013-03-01 07:02:00,52.8,29.8,30.34,WSW,253,3.0,8.0,41,0.00,,---,0.04,VWS V14.01,2013-03-01 15:02:00,
2013-03-01 07:07:00,53.4,33.2,30.34,WNW,292,0.0,4.0,46,0.00,,---,0.04,VWS V14.01,2013-03-01 15:07:00,
2013-03-01 07:12:00,53.6,37.4,30.34,NNE,13,3.0,8.0,54,0.00,,---,0.04,VWS V14.01,2013-03-01 15:12:00,
2013-03-01 07:17:00,53.7,35.0,30.34,NE,49,3.0,4.0,49,0.00,,---,0.04,VWS V14.01,2013-03-01 15:17:00,
2013-03-01 07:22:00,53.5,37.3,30.34,West,279,0.0,3.0,54,0.00,,---,0.04,VWS V14.01,2013-03-01 15:22:00,
2013-03-01 07:27:00,53.5,34.8,30.35,SE,146,2.0,8.0,49,0.00,,---,0.04,VWS V14.01,2013-03-01 15:27:00,
2013-03-01 07:32:00,53.3,33.1,30.35,East,86,1.0,3.0,46,0.00,,---,0.04,VWS V14.01,2013-03-01 15:32:00,
2013-03-01 07:37:00,53.2,32.4,30.35,NNE,30,0.0,0.0,45,0.00,,---,0.04,VWS V14.01,2013-03-01 15:37:00,
2013-03-01 07:42:00,53.1,30.6,30.35,North,355,0.0,0.0,42,0.00,,---,0.04,VWS V14.01,2013-03-01 15:42:00,
2013-03-01 07:47:00,52.9,29.9,30.36,North,355,3.0,6.0,41,0.00,,---,0.04,VWS V14.01,2013-03-01 15:47:00,
2013-03-01 07:52:00,53.0,31.1,30.36,SW,236,3.0,4.0,43,0.00,,---,0.04,VWS V14.01,2013-03-01 15:52:00,
2013-03-01 07:57:00,53.5,39.1,30.35,SW,227,0.0,5.0,58,0.00,,---,0.04,VWS V14.01,2013-03-01 15:57:00,
2013-03-01 08:02:00,53.7,37.0,30.36,NW,306,3.0,4.0,53,0.00,,---,0.04,VWS V14.01,2013-03-01 16:02:00,
2013-03-01 08:07:00,53.5,35.3,30.36,NW,307,0.0,2.0,50,0.00,,---,0.04,VWS V14.01,2013-03-01 16:07:00,
2013-03-01 08:12:00,53.7,39.7,30.36,NE,38,0.0,0.0,59,0.00,,---,0.04,VWS V14.01,2013-03-01 16:12:00,
2013-03-01 08:17:00,53.6,36.4,30.36,NE,38,0.0,0.0,52,0.00,,---,0.04,VWS V14.01,2013-03-01 16:17:00,
2013-03-01 08:22:00,53.4,35.7,30.36,NNE,29,3.0,4.0,51,0.00,,---,0.04,VWS V14.01,2013-03-01 16:22:00,
2013-03-01 08:27:00,53.6,40.5,30.36,NNW,338,0.0,4.0,61,0.00,,---,0.04,VWS V14.01,2013-03-01 16:27:00,
2013-03-01 08:32:00,53.8,38.5,30.36,NNW,332,1.0,3.0,56,0.00,,---,0.04,VWS V14.01,2013-03-01 16:32:00,
2013-03-01 08:37:00,53.5,35.8,30.36,NNE,12,1.0,1.0,51,0.00,,---,0.04,VWS V14.01,2013-03-01 16:37:00,
2013-03-01 08:42:00,53.3,37.1,30.36,ENE,69,0.0,10.0,54,0.00,,---,0.04,VWS V14.01,2013-03-01 16:42:00,
2013-03-01 08:47:00,53.4,35.7,30.36,West,269,0.0,1.0,51,0.00,,---,0.04,VWS V14.01,2013-03-01 16:47:00,
2013-03-01 08:52:00,53.3,34.1,30.36,West,270,0.0,2.0,48,0.00,,---,0.04,VWS V14.01,2013-03-01 16:52:00,
2013-03-01 08:57:00,53.5,37.3,30.36,SSE,167,0.0,1.0,54,0.00,,---,0.04,VWS V14.01,2013-03-01 16:57:00,
2013-03-01 09:02:00,53.6,39.2,30.37,WNW,294,0.0,1.0,58,0.00,,---,0.04,VWS V14.01,2013-03-01 17:02:00,
2013-03-01 09:07:00,53.5,37.8,30.37,WNW,285,1.0,1.0,55,0.00,,---,0.04,VWS V14.01,2013-03-01 17:07:00,
2013-03-01 09:12:00,53.6,37.8,30.37,NW,307,3.0,3.0,55,0.00,,---,0.04,VWS V14.01,2013-03-01 17:12:00,
2013-03-01 09:17:00,53.8,38.9,30.37,North,5,0.0,0.0,57,0.00,,---,0.04,VWS V14.01,2013-03-01 17:17:00,
2013-03-01 09:22:00,53.6,36.4,30.37,NNW,342,0.0,1.0,52,0.00,,---,0.04,VWS V14.01,2013-03-01 17:22:00,
2013-03-01 09:27:00,53.2,33.0,30.38,NNW,342,0.0,0.0,46,0.00,,---,0.04,VWS V14.01,2013-03-01 17:27:00,
2013-03-01 09:32:00,53.0,30.5,30.38,NNW,342,0.0,0.0,42,0.00,,---,0.04,VWS V14.01,2013-03-01 17:32:00,
2013-03-01 09:37:00,52.8,27.3,30.38,NNW,342,0.0,0.0,37,0.00,,---,0.04,VWS V14.01,2013-03-01 17:37:00,
2013-03-01 09:42:00,52.7,25.1,30.37,NNW,342,0.0,0.0,34,0.00,,---,0.04,VWS V14.01,2013-03-01 17:42:00,
2013-03-01 09:47:00,52.6,23.6,30.38,NW,325,1.0,1.0,32,0.00,,---,0.04,VWS V14.01,2013-03-01 17:47:00,
2013-03-01 09:52:00,52.8,25.9,30.38,West,271,0.0,2.0,35,0.00,,---,0.04,VWS V14.01,2013-03-01 17:52:00,
2013-03-01 09:57:00,52.8,25.2,30.38,West,271,0.0,0.0,34,0.00,,---,0.04,VWS V14.01,2013-03-01 17:57:00,
2013-03-01 10:02:00,52.8,23.8,30.38,West,271,0.0,1.0,32,0.00,,---,0.04,VWS V14.01,2013-03-01 18:02:00,
2013-03-01 10:07:00,52.9,27.4,30.38,SW,234,0.0,2.0,37,0.00,,---,0.04,VWS V14.01,2013-03-01 18:07:00,
2013-03-01 10:12:00,52.9,26.7,30.38,North,5,2.0,2.0,36,0.00,,---,0.04,VWS V14.01,2013-03-01 18:12:00,
2013-03-01 10:17:00,53.0,32.2,30.38,East,80,0.0,4.0,45,0.00,,---,0.04,VWS V14.01,2013-03-01 18:17:00,
2013-03-01 10:22:00,53.1,29.4,30.38,East,80,0.0,0.0,40,0.00,,---,0.04,VWS V14.01,2013-03-01 18:22:00,
2013-03-01 10:27:00,53.1,31.8,30.38,ENE,65,0.0,0.0,44,0.00,,---,0.04,VWS V14.01,2013-03-01 18:27:00,
2013-03-01 10:32:00,53.1,28.8,30.38,ENE,65,0.0,0.0,39,0.00,,---,0.04,VWS V14.01,2013-03-01 18:32:00,
2013-03-01 10:37:00,53.0,28.7,30.38,ENE,65,0.0,1.0,39,0.00,,---,0.04,VWS V14.01,2013-03-01 18:37:00,
2013-03-01 10:42:00,53.1,26.9,30.38,ENE,65,0.0,0.0,36,0.00,,---,0.04,VWS V14.01,2013-03-01 18:42:00,
2013-03-01 10:47:00,53.0,25.4,30.39,ENE,65,0.0,0.0,34,0.00,,---,0.04,VWS V14.01,2013-03-01 18:47:00,
2013-03-01 10:52:00,53.0,25.4,30.38,ENE,65,0.0,0.0,34,0.00,,---,0.04,VWS V14.01,2013-03-01 18:52:00,
2013-03-01 10:57:00,53.1,28.2,30.38,ENE,65,0.0,2.0,38,0.00,,---,0.04,VWS V14.01,2013-03-01 18:57:00,
2013-03-01 11:02:00,53.3,30.2,30.38,ENE,65,1.0,2.0,41,0.00,,---,0.04,VWS V14.01,2013-03-01 19:02:00,
2013-03-01 11:07:00,53.5,27.9,30.38,ENE,65,0.0,0.0,37,0.01,,---,0.05,VWS V14.01,2013-03-01 19:07:00,
2013-03-01 11:12:00,53.5,25.8,30.38,ENE,65,0.0,0.0,34,0.01,,---,0.05,VWS V14.01,2013-03-01 19:12:00,
2013-03-01 11:17:00,53.6,26.6,30.38,ENE,65,0.0,0.0,35,0.01,,---,0.05,VWS V14.01,2013-03-01 19:17:00,
2013-03-01 11:22:00,53.8,30.1,30.38,West,279,0.0,1.0,40,0.01,,---,0.05,VWS V14.01,2013-03-01 19:22:00,
2013-03-01 11:27:00,54.0,27.0,30.38,NNE,26,0.0,2.0,35,0.01,,---,0.05,VWS V14.01,2013-03-01 19:27:00,
2013-03-01 11:32:00,54.1,32.1,30.38,NNE,27,2.0,2.0,43,0.01,,---,0.05,VWS V14.01,2013-03-01 19:32:00,
2013-03-01 11:37:00,54.4,35.7,30.38,ENE,62,0.0,0.0,49,0.01,,---,0.05,VWS V14.01,2013-03-01 19:37:00,
2013-03-01 11:42:00,54.6,41.0,30.38,ENE,61,0.0,0.0,60,0.01,,---,0.05,VWS V14.01,2013-03-01 19:42:00,
2013-03-01 11:47:00,54.8,37.5,30.39,ENE,61,0.0,0.0,52,0.01,,---,0.05,VWS V14.01,2013-03-01 19:47:00,
2013-03-01 11:52:00,54.8,38.0,30.38,ENE,61,1.0,1.0,53,0.01,,---,0.05,VWS V14.01,2013-03-01 19:52:00,
2013-03-01 11:57:00,54.7,35.4,30.38,NE,54,0.0,0.0,48,0.01,,---,0.05,VWS V14.01,2013-03-01 19:57:00,
2013-03-01 12:02:00,54.7,35.4,30.38,NE,54,2.0,2.0,48,0.01,,---,0.05,VWS V14.01,2013-03-01 20:02:00,
2013-03-01 12:07:00,54.7,34.9,30.38,NE,54,0.0,0.0,47,0.00,,---,0.05,VWS V14.01,2013-03-01 20:07:00,
2013-03-01 12:12:00,54.8,32.8,30.37,NE,54,0.0,0.0,43,0.00,,---,0.05,VWS V14.01,2013-03-01 20:12:00,
2013-03-01 12:17:00,54.8,32.8,30.37,NE,54,0.0,0.0,43,0.00,,---,0.05,VWS V14.01,2013-03-01 20:17:00,
2013-03-01 12:22:00,54.9,32.3,30.37,NE,54,0.0,0.0,42,0.00,,---,0.05,VWS V14.01,2013-03-01 20:22:00,
2013-03-01 12:27:00,55.1,36.8,30.37,NE,54,1.0,1.0,50,0.00,,---,0.05,VWS V14.01,2013-03-01 20:27:00,
2013-03-01 12:32:00,55.4,43.4,30.37,NE,54,0.0,0.0,64,0.00,,---,0.05,VWS V14.01,2013-03-01 20:32:00,
2013-03-01 12:37:00,55.8,40.4,30.37,East,86,0.0,4.0,56,0.00,,---,0.05,VWS V14.01,2013-03-01 20:37:00,
2013-03-01 12:42:00,55.9,42.2,30.37,East,86,0.0,0.0,60,0.00,,---,0.05,VWS V14.01,2013-03-01 20:42:00,
2013-03-01 12:47:00,55.9,42.2,30.37,East,79,0.0,0.0,60,0.00,,---,0.05,VWS V14.01,2013-03-01 20:47:00,
2013-03-01 12:52:00,56.0,42.3,30.36,East,79,0.0,0.0,60,0.00,,---,0.05,VWS V14.01,2013-03-01 20:52:00,
2013-03-01 12:57:00,56.0,44.4,30.36,East,79,1.0,1.0,65,0.00,,---,0.05,VWS V14.01,2013-03-01 20:57:00,
2013-03-01 13:02:00,56.1,45.3,30.35,East,79,0.0,0.0,67,0.00,,---,0.05,VWS V14.01,2013-03-01 21:02:00,
2013-03-01 13:07:00,56.1,43.7,30.35,East,79,0.0,0.0,63,0.00,,---,0.05,VWS V14.01,2013-03-01 21:07:00,
2013-03-01 13:12:00,56.2,44.6,30.35,East,79,0.0,0.0,65,0.00,,---,0.05,VWS V14.01,2013-03-01 21:12:00,
2013-03-01 13:17:00,56.1,43.3,30.35,East,79,0.0,0.0,62,0.00,,---,0.05,VWS V14.01,2013-03-01 21:17:00,
2013-03-01 13:22:00,56.0,44.8,30.35,East,79,0.0,0.0,66,0.00,,---,0.05,VWS V14.01,2013-03-01 21:22:00,
2013-03-01 13:27:00,56.0,43.6,30.35,East,79,0.0,0.0,63,0.00,,---,0.05,VWS V14.01,2013-03-01 21:27:00,
2013-03-01 13:32:00,55.9,43.1,30.35,East,79,0.0,0.0,62,0.00,,---,0.05,VWS V14.01,2013-03-01 21:32:00,
2013-03-01 13:37:00,55.8,41.3,30.35,East,79,0.0,0.0,58,0.00,,---,0.05,VWS V14.01,2013-03-01 21:37:00,
2013-03-01 13:42:00,55.7,38.8,30.35,East,79,0.0,0.0,53,0.00,,---,0.05,VWS V14.01,2013-03-01 21:42:00,
2013-03-01 13:47:00,55.6,38.8,30.35,East,79,0.0,0.0,53,0.00,,---,0.05,VWS V14.01,2013-03-01 21:47:00,
2013-03-01 13:52:00,55.5,39.1,30.35,East,79,0.0,0.0,54,0.00,,---,0.05,VWS V14.01,2013-03-01 21:52:00,
2013-03-01 13:57:00,55.6,37.8,30.34,East,79,0.0,0.0,51,0.00,,---,0.05,VWS V14.01,2013-03-01 21:57:00,
2013-03-01 14:02:00,55.6,42.0,30.34,East,79,2.0,2.0,60,0.00,,---,0.05,VWS V14.01,2013-03-01 22:02:00,
2013-03-01 14:07:00,55.7,40.3,30.34,East,79,0.0,0.0,56,0.00,,---,0.05,VWS V14.01,2013-03-01 22:07:00,
2013-03-01 14:12:00,55.9,38.5,30.34,East,79,0.0,1.0,52,0.00,,---,0.05,VWS V14.01,2013-03-01 22:12:00,
2013-03-01 14:17:00,55.9,40.9,30.34,East,79,0.0,0.0,57,0.00,,---,0.05,VWS V14.01,2013-03-01 22:17:00,
2013-03-01 14:22:00,55.9,40.0,30.34,East,79,0.0,0.0,55,0.00,,---,0.05,VWS V14.01,2013-03-01 22:22:00,
2013-03-01 14:27:00,56.1,37.7,30.34,East,79,0.0,0.0,50,0.00,,---,0.05,VWS V14.01,2013-03-01 22:27:00,
2013-03-01 14:32:00,56.1,40.6,30.33,East,79,0.0,2.0,56,0.00,,---,0.05,VWS V14.01,2013-03-01 22:32:00,
2013-03-01 14:37:00,56.3,42.6,30.34,East,79,0.0,0.0,60,0.00,,---,0.05,VWS V14.01,2013-03-01 22:37:00,
2013-03-01 14:42:00,56.4,44.0,30.34,East,79,0.0,0.0,63,0.00,,---,0.05,VWS V14.01,2013-03-01 22:42:00,
2013-03-01 14:47:00,56.6,45.8,30.34,SSE,165,0.0,0.0,67,0.00,,---,0.05,VWS V14.01,2013-03-01 22:47:00,
2013-03-01 14:52:00,56.6,47.7,30.33,North,5,0.0,4.0,72,0.00,,---,0.05,VWS V14.01,2013-03-01 22:52:00,
2013-03-01 14:57:00,56.7,46.7,30.34,North,5,0.0,0.0,69,0.00,,---,0.05,VWS V14.01,2013-03-01 22:57:00,
2013-03-01 15:02:00,56.6,46.9,30.33,NNE,14,0.0,0.0,70,0.00,,---,0.05,VWS V14.01,2013-03-01 23:02:00,
2013-03-01 15:07:00,56.7,47.4,30.33,NNE,24,0.0,2.0,71,0.00,,---,0.05,VWS V14.01,2013-03-01 23:07:00,
2013-03-01 15:12:00,56.7,46.7,30.33,NE,37,0.0,2.0,69,0.00,,---,0.05,VWS V14.01,2013-03-01 23:12:00,
2013-03-01 15:17:00,56.8,47.9,30.33,East,101,0.0,3.0,72,0.00,,---,0.05,VWS V14.01,2013-03-01 23:17:00,
2013-03-01 15:23:00,57.1,50.0,30.33,ENE,65,0.0,4.0,77,0.00,,---,0.05,VWS V14.01,2013-03-01 23:23:00,
2013-03-01 15:28:00,57.3,49.8,30.33,ENE,65,0.0,3.0,76,0.00,,---,0.05,VWS V14.01,2013-03-01 23:28:00,
2013-03-01 15:33:00,57.5,49.7,30.33,ENE,65,0.0,2.0,75,0.00,,---,0.05,VWS V14.01,2013-03-01 23:33:00,
2013-03-01 15:38:00,57.5,49.7,30.34,ENE,68,3.0,4.0,75,0.00,,---,0.05,VWS V14.01,2013-03-01 23:38:00,
2013-03-01 15:43:00,57.7,49.5,30.33,ENE,60,0.0,0.0,74,0.00,,---,0.05,VWS V14.01,2013-03-01 23:43:00,
2013-03-01 15:48:00,57.6,49.8,30.33,ENE,60,0.0,3.0,75,0.00,,---,0.05,VWS V14.01,2013-03-01 23:48:00,
2013-03-01 15:53:00,57.6,50.5,30.33,ENE,60,0.0,1.0,77,0.00,,---,0.05,VWS V14.01,2013-03-01 23:53:00,
2013-03-01 15:58:00,57.6,50.5,30.33,SE,146,0.0,3.0,77,0.00,,---,0.05,VWS V14.01,2013-03-01 23:58:00,
2013-03-01 16:03:00,57.7,50.5,30.33,SE,146,0.0,0.0,77,0.00,,---,0.05,VWS V14.01,2013-03-02 00:03:00,
2013-03-01 16:08:00,57.7,50.5,30.33,ESE,110,0.0,1.0,77,0.00,,---,0.05,VWS V14.01,2013-03-02 00:08:00,
2013-03-01 16:13:00,57.7,50.2,30.33,ESE,110,1.0,1.0,76,0.00,,---,0.05,VWS V14.01,2013-03-02 00:13:00,
2013-03-01 16:18:00,57.6,50.5,30.33,ESE,110,0.0,1.0,77,0.00,,---,0.05,VWS V14.01,2013-03-02 00:18:00,
2013-03-01 16:23:00,57.6,50.5,30.33,ESE,110,0.0,1.0,77,0.00,,---,0.05,VWS V14.01,2013-03-02 00:23:00,
2013-03-01 16:28:00,57.7,49.5,30.33,ESE,110,0.0,0.0,74,0.00,,---,0.05,VWS V14.01,2013-03-02 00:28:00,
2013-03-01 16:33:00,57.6,50.5,30.33,SSE,149,0.0,4.0,77,0.00,,---,0.05,VWS V14.01,2013-03-02 00:33:00,
2013-03-01 16:38:00,57.6,50.8,30.32,NNW,340,0.0,6.0,78,0.00,,---,0.05,VWS V14.01,2013-03-02 00:38:00,
2013-03-01 16:43:00,57.6,50.8,30.32,ESE,108,2.0,5.0,78,0.00,,---,0.05,VWS V14.01,2013-03-02 00:43:00,
2013-03-01 16:48:00,57.9,50.4,30.32,ESE,110,0.0,1.0,76,0.00,,---,0.05,VWS V14.01,2013-03-02 00:48:00,
2013-03-01 16:53:00,57.8,50.3,30.32,ESE,110,0.0,0.0,76,0.00,,---,0.05,VWS V14.01,2013-03-02 00:53:00,
2013-03-01 16:58:00,57.6,49.8,30.32,ESE,110,0.0,0.0,75,0.00,,---,0.05,VWS V14.01,2013-03-02 00:58:00,
2013-03-01 17:03:00,57.4,50.3,30.32,ESE,110,0.0,2.0,77,0.00,,---,0.05,VWS V14.01,2013-03-02 01:03:00,
2013-03-01 17:08:00,57.4,50.3,30.32,ESE,110,0.0,0.0,77,0.00,,---,0.05,VWS V14.01,2013-03-02 01:08:00,
2013-03-01 17:13:00,57.5,49.3,30.32,ESE,110,0.0,1.0,74,0.00,,---,0.05,VWS V14.01,2013-03-02 01:13:00,
2013-03-01 17:18:00,57.1,50.3,30.32,SSW,207,3.0,4.0,78,0.00,,---,0.05,VWS V14.01,2013-03-02 01:18:00,
2013-03-01 17:23:00,57.3,50.2,30.32,NE,40,0.0,1.0,77,0.00,,---,0.05,VWS V14.01,2013-03-02 01:23:00,
2013-03-01 17:28:00,57.1,50.0,30.32,ESE,111,2.0,2.0,77,0.00,,---,0.05,VWS V14.01,2013-03-02 01:28:00,
2013-03-01 17:33:00,57.3,49.8,30.32,East,101,0.0,0.0,76,0.00,,---,0.05,VWS V14.01,2013-03-02 01:33:00,
2013-03-01 17:38:00,56.9,49.4,30.32,East,101,0.0,0.0,76,0.00,,---,0.05,VWS V14.01,2013-03-02 01:38:00,
2013-03-01 17:43:00,56.6,49.5,30.32,NE,54,0.0,2.0,77,0.00,,---,0.05,VWS V14.01,2013-03-02 01:43:00,
2013-03-01 17:48:00,56.5,49.4,30.32,North,10,0.0,2.0,77,0.00,,---,0.05,VWS V14.01,2013-03-02 01:48:00,
2013-03-01 17:53:00,56.2,49.1,30.32,NNE,17,0.0,1.0,77,0.00,,---,0.05,VWS V14.01,2013-03-02 01:53:00,
2013-03-01 17:58:00,56.1,49.0,30.33,SW,224,0.0,2.0,77,0.00,,---,0.05,VWS V14.01,2013-03-02 01:58:00,
2013-03-01 18:03:00,56.0,48.5,30.33,NE,53,0.0,3.0,76,0.00,,---,0.05,VWS V14.01,2013-03-02 02:03:00,
2013-03-01 18:08:00,55.8,48.4,30.32,NE,53,0.0,0.0,76,0.00,,---,0.05,VWS V14.01,2013-03-02 02:08:00,
2013-03-01 18:13:00,55.4,47.6,30.33,SSW,209,2.0,5.0,75,0.00,,---,0.05,VWS V14.01,2013-03-02 02:13:00,
2013-03-01 18:18:00,55.1,46.2,30.33,SSW,209,0.0,0.0,72,0.00,,---,0.05,VWS V14.01,2013-03-02 02:18:00,
2013-03-01 18:23:00,54.8,46.3,30.33,SSW,209,0.0,0.0,73,0.00,,---,0.05,VWS V14.01,2013-03-02 02:23:00,
2013-03-01 18:28:00,54.6,45.4,30.33,SSW,209,0.0,0.0,71,0.00,,---,0.05,VWS V14.01,2013-03-02 02:28:00,
2013-03-01 18:33:00,54.4,45.2,30.33,East,82,0.0,3.0,71,0.00,,---,0.05,VWS V14.01,2013-03-02 02:33:00,
2013-03-01 18:38:00,54.4,44.8,30.33,East,82,0.0,0.0,70,0.00,,---,0.05,VWS V14.01,2013-03-02 02:38:00,
2013-03-01 18:43:00,54.3,44.7,30.33,East,82,0.0,0.0,70,0.00,,---,0.05,VWS V14.01,2013-03-02 02:43:00,
2013-03-01 18:48:00,54.2,44.3,30.33,East,82,0.0,1.0,69,0.00,,---,0.05,VWS V14.01,2013-03-02 02:48:00,
2013-03-01 18:53:00,54.1,43.0,30.33,East,82,0.0,0.0,66,0.00,,---,0.05,VWS V14.01,2013-03-02 02:53:00,
2013-03-01 18:58:00,53.8,42.7,30.33,East,82,0.0,0.0,66,0.00,,---,0.05,VWS V14.01,2013-03-02 02:58:00,
2013-03-01 19:03:00,53.7,42.2,30.33,East,82,0.0,0.0,65,0.00,,---,0.05,VWS V14.01,2013-03-02 03:03:00,
2013-03-01 19:08:00,53.5,40.8,30.32,East,82,0.0,0.0,62,0.00,,---,0.05,VWS V14.01,2013-03-02 03:08:00,
2013-03-01 19:13:00,53.3,40.2,30.33,East,82,0.0,0.0,61,0.00,,---,0.05,VWS V14.01,2013-03-02 03:13:00,
2013-03-01 19:18:00,53.2,40.5,30.33,East,82,0.0,0.0,62,0.00,,---,0.05,VWS V14.01,2013-03-02 03:18:00,
2013-03-01 19:23:00,53.1,39.2,30.33,East,82,0.0,0.0,59,0.00,,---,0.05,VWS V14.01,2013-03-02 03:23:00,
2013-03-01 19:28:00,52.8,37.5,30.33,East,82,0.0,0.0,56,0.00,,---,0.05,VWS V14.01,2013-03-02 03:28:00,
2013-03-01 19:33:00,52.7,36.1,30.33,East,82,0.0,0.0,53,0.00,,---,0.05,VWS V14.01,2013-03-02 03:33:00,
2013-03-01 19:38:00,52.5,34.4,30.33,East,82,0.0,0.0,50,0.00,,---,0.05,VWS V14.01,2013-03-02 03:38:00,
2013-03-01 19:43:00,52.4,34.3,30.33,East,82,0.0,0.0,50,0.00,,---,0.05,VWS V14.01,2013-03-02 03:43:00,
2013-03-01 19:48:00,52.4,34.3,30.33,East,82,0.0,0.0,50,0.00,,---,0.05,VWS V14.01,2013-03-02 03:48:00,
2013-03-01 19:53:00,52.3,34.7,30.33,East,82,0.0,0.0,51,0.00,,---,0.05,VWS V14.01,2013-03-02 03:53:00,
2013-03-01 19:58:00,52.3,34.7,30.33,East,82,0.0,0.0,51,0.00,,---,0.05,VWS V14.01,2013-03-02 03:58:00,
2013-03-01 20:03:00,52.4,36.7,30.33,East,82,0.0,0.0,55,0.00,,---,0.05,VWS V14.01,2013-03-02 04:03:00,
2013-03-01 20:08:00,52.3,34.7,30.32,East,82,0.0,0.0,51,0.00,,---,0.05,VWS V14.01,2013-03-02 04:08:00,
2013-03-01 20:13:00,52.2,33.6,30.32,East,82,0.0,0.0,49,0.00,,---,0.05,VWS V14.01,2013-03-02 04:13:00,
2013-03-01 20:18:00,52.1,34.0,30.32,East,82,0.0,0.0,50,0.00,,---,0.05,VWS V14.01,2013-03-02 04:18:00,
2013-03-01 20:23:00,52.1,34.0,30.32,East,82,0.0,0.0,50,0.00,,---,0.05,VWS V14.01,2013-03-02 04:23:00,
2013-03-01 20:28:00,52.1,34.0,30.32,East,82,0.0,0.0,50,0.00,,---,0.05,VWS V14.01,2013-03-02 04:28:00,
2013-03-01 20:33:00,52.1,33.0,30.32,East,82,0.0,0.0,48,0.00,,---,0.05,VWS V14.01,2013-03-02 04:33:00,
2013-03-01 20:38:00,52.0,33.5,30.31,East,82,0.0,0.0,49,0.00,,---,0.05,VWS V14.01,2013-03-02 04:38:00,
2013-03-01 20:43:00,52.0,32.9,30.31,East,82,0.0,0.0,48,0.00,,---,0.05,VWS V14.01,2013-03-02 04:43:00,
2013-03-01 20:48:00,51.9,31.8,30.31,East,82,0.0,0.0,46,0.00,,---,0.05,VWS V14.01,2013-03-02 04:48:00,
2013-03-01 20:53:00,51.8,30.6,30.31,East,82,0.0,0.0,44,0.00,,---,0.05,VWS V14.01,2013-03-02 04:53:00,
2013-03-01 20:58:00,51.7,29.9,30.31,East,82,0.0,0.0,43,0.00,,---,0.05,VWS V14.01,2013-03-02 04:58:00,
2013-03-01 21:00:00,51.7,29.4,30.31,East,82,0.0,0.0,42,0.00,,---,0.05,VWS V14.01,2013-03-02 05:00:00,
2013-03-01 21:05:00,51.6,29.3,30.31,East,82,0.0,0.0,42,0.00,,---,0.05,VWS V14.01,2013-03-02 05:05:00,
2013-03-01 21:10:00,51.6,28.7,30.31,East,82,0.0,0.0,41,0.00,,---,0.05,VWS V14.01,2013-03-02 05:10:00,
2013-03-01 21:15:00,51.5,28.6,30.31,East,82,0.0,0.0,41,0.00,,---,0.05,VWS V14.01,2013-03-02 05:15:00,
2013-03-01 21:20:00,51.5,28.0,30.31,East,82,0.0,0.0,40,0.00,,---,0.05,VWS V14.01,2013-03-02 05:20:00,
2013-03-01 21:25:00,51.6,28.1,30.30,East,82,0.0,0.0,40,0.00,,---,0.05,VWS V14.01,2013-03-02 05:25:00,
2013-03-01 21:30:00,51.6,29.3,30.30,East,82,0.0,0.0,42,0.00,,---,0.05,VWS V14.01,2013-03-02 05:30:00,
2013-03-01 21:35:00,51.6,30.4,30.31,East,82,0.0,0.0,44,0.00,,---,0.05,VWS V14.01,2013-03-02 05:35:00,
2013-03-01 21:40:00,51.6,31.5,30.31,East,80,1.0,2.0,46,0.00,,---,0.05,VWS V14.01,2013-03-02 05:40:00,
2013-03-01 21:45:00,51.6,32.0,30.31,East,80,0.0,0.0,47,0.00,,---,0.05,VWS V14.01,2013-03-02 05:45:00,
2013-03-01 21:50:00,51.7,32.7,30.31,East,80,0.0,0.0,48,0.00,,---,0.05,VWS V14.01,2013-03-02 05:50:00,
2013-03-01 21:55:00,51.6,32.6,30.32,East,80,0.0,0.0,48,0.00,,---,0.05,VWS V14.01,2013-03-02 05:55:00,
2013-03-01 22:00:00,51.4,31.9,30.31,East,80,0.0,0.0,47,0.00,,---,0.05,VWS V14.01,2013-03-02 06:00:00,
2013-03-01 22:05:00,51.3,30.7,30.31,East,80,0.0,0.0,45,0.00,,---,0.05,VWS V14.01,2013-03-02 06:05:00,
2013-03-01 22:10:00,51.1,29.4,30.31,East,80,0.0,0.0,43,0.00,,---,0.05,VWS V14.01,2013-03-02 06:10:00,
2013-03-01 22:15:00,51.1,30.5,30.31,East,80,0.0,0.0,45,0.00,,---,0.05,VWS V14.01,2013-03-02 06:15:00,
2013-03-01 22:20:00,51.2,32.2,30.31,East,80,0.0,0.0,48,0.00,,---,0.05,VWS V14.01,2013-03-02 06:20:00,
2013-03-01 22:25:00,51.1,32.1,30.32,East,80,0.0,0.0,48,0.00,,---,0.05,VWS V14.01,2013-03-02 06:25:00,
2013-03-01 22:30:00,51.1,32.1,30.32,East,80,0.0,0.0,48,0.00,,---,0.05,VWS V14.01,2013-03-02 06:30:00,
2013-03-01 22:35:00,51.0,29.9,30.32,East,80,0.0,0.0,44,0.00,,---,0.05,VWS V14.01,2013-03-02 06:35:00,
2013-03-01 22:40:00,51.0,29.3,30.32,East,80,0.0,0.0,43,0.00,,---,0.05,VWS V14.01,2013-03-02 06:40:00,
2013-03-01 22:45:00,50.9,29.8,30.32,East,80,0.0,0.0,44,0.00,,---,0.05,VWS V14.01,2013-03-02 06:45:00,
2013-03-01 22:50:00,50.8,28.5,30.32,East,80,0.0,0.0,42,0.00,,---,0.05,VWS V14.01,2013-03-02 06:50:00,
2013-03-01 22:55:00,50.7,26.0,30.31,East,80,0.0,0.0,38,0.00,,---,0.05,VWS V14.01,2013-03-02 06:55:00,
2013-03-01 23:00:00,50.6,26.6,30.31,East,80,0.0,0.0,39,0.00,,---,0.05,VWS V14.01,2013-03-02 07:00:00,
2013-03-01 23:05:00,50.4,27.0,30.31,East,80,0.0,0.0,40,0.00,,---,0.05,VWS V14.01,2013-03-02 07:05:00,
2013-03-01 23:10:00,50.3,25.7,30.31,East,80,0.0,0.0,38,0.00,,---,0.05,VWS V14.01,2013-03-02 07:10:00,
2013-03-01 23:15:00,50.1,26.1,30.30,East,80,0.0,0.0,39,0.00,,---,0.05,VWS V14.01,2013-03-02 07:15:00,
2013-03-01 23:20:00,49.9,25.3,30.30,East,80,0.0,0.0,38,0.00,,---,0.05,VWS V14.01,2013-03-02 07:20:00,
2013-03-01 23:25:00,49.7,23.2,30.30,East,80,0.0,0.0,35,0.00,,---,0.05,VWS V14.01,2013-03-02 07:25:00,
2013-03-01 23:30:00,49.6,22.4,30.30,East,80,0.0,0.0,34,0.00,,---,0.05,VWS V14.01,2013-03-02 07:30:00,
2013-03-01 23:35:00,49.4,22.2,30.30,East,80,0.0,0.0,34,0.00,,---,0.05,VWS V14.01,2013-03-02 07:35:00,
2013-03-01 23:40:00,49.2,22.0,30.30,East,80,0.0,0.0,34,0.00,,---,0.05,VWS V14.01,2013-03-02 07:40:00,
2013-03-01 23:45:00,49.0,21.9,30.30,East,80,0.0,0.0,34,0.00,,---,0.05,VWS V14.01,2013-03-02 07:45:00,
2013-03-01 23:50:00,48.8,21.0,30.30,East,80,0.0,0.0,33,0.00,,---,0.05,VWS V14.01,2013-03-02 07:50:00,
2013-03-01 23:55:00,48.6,21.5,30.30,East,80,0.0,0.0,34,0.00,,---,0.05,VWS V14.01,2013-03-02 07:55:00,